Tropical Cyclones
[Index]
Main Index Home Page Stock Weather Photos Extreme Storms Discussion Storm News and Storm Chasing Reports Tropical Cyclones / Hurricanes / Typhoons Weather Data and Links Wild Fires / Bushfires Weather Observation Techniques Weather Picture Catalogue Tornado Pictures and Reports Stock Video Footage and DVDs for sale
Season 1971-1972 Tropical Cyclone IDA Track Map
Season 1971-1972 Summaries: [BoM-AU] [JTWC-AU] [JTWC-SIO] [JTWC-SPAC] [JTWC-SH]
<<- Previous TC | BoM 1971-1972 Season | Next TC ->>

click for intensity scale information  Lat/long Grid: Show Hide

 Date Labels: Show Hide

Bureau of Meteorology Tropical Cyclone Data

Name: IDA
Number: 498 / 197172_20

29 May 1972 23:00 UTC to 03 Jun 1972 05:00 UTC

    date/time    lat    long    hPa   cat  kts
1972-05-29 23    5.0   156.4   1000                     
1972-05-30 02    5.5   156.5   1000                     
1972-05-30 05    6.0   156.6    998                     
1972-05-30 08    6.1   156.8    998                     
1972-05-30 11    6.3   156.9    998                     
1972-05-30 14    6.7   157.0    998                     
1972-05-30 17    6.8   157.1    998                     
1972-05-30 20    6.9   157.2    995    1                
1972-05-30 23    7.0   157.5    980    2                
1972-05-31 02    7.2   157.9    978    2                
1972-05-31 05    7.3   158.2    978    2                
1972-05-31 08    7.6   158.5    978    2                
1972-05-31 11    7.8   158.9    975    2                
1972-05-31 14    7.9   159.2    975    2                
1972-05-31 17    8.1   159.5    970    3                
1972-05-31 20    8.3   159.8    970    3                
1972-05-31 23    8.5   160.0    970    3                
1972-06-01 02    8.9   160.2    970    3                
1972-06-01 05    9.5   160.6    970    3                
1972-06-01 08   10.0   160.8    970    3                
1972-06-01 11   10.8   160.9    970    3                
1972-06-01 14   11.4   161.1    975    2                
1972-06-01 17   12.3   161.2    975    2                
1972-06-01 20   13.1   161.3    975    2                
1972-06-01 23   14.0   161.5    983    2                
1972-06-02 02   14.8   161.8    985    2                
1972-06-02 05   15.7   162.1    985    2                
1972-06-02 08   16.6   162.7    985    2                
1972-06-02 11   17.4   163.2    985    2                
1972-06-02 14   18.1   163.8    987    1                
1972-06-02 17   19.0   164.5    987    1                
1972-06-02 20   19.8   165.2    990    1                
1972-06-02 23   20.6   166.0    990    1                
1972-06-03 02   21.3   167.2    990    1                
1972-06-03 05   22.0   168.0    995    1                
Winds are 10-min average.

Tropical cyclone tracks developed by Michael Bath using data from the Bureau of Meteorology and Google Maps.


[Australian Severe Weather index] [Copyright Notice] [Email Contacts] [Search This Site] [Privacy Policy]
Document: tropical_cyclone_ida.htm Updated: 30 May 2013